sensor_id;sensor_type;location;lat;lon;timestamp;P1;durP1;ratioP1;P2;durP2;ratioP2
51840;SDS011;37888;53.246;6.658;2023-06-26T00:01:23;3.97;;;3.58;;
51840;SDS011;37888;53.246;6.658;2023-06-26T00:03:49;4.90;;;4.15;;
51840;SDS011;37888;53.246;6.658;2023-06-26T00:06:14;4.45;;;3.78;;
51840;SDS011;37888;53.246;6.658;2023-06-26T00:08:40;4.50;;;4.10;;
51840;SDS011;37888;53.246;6.658;2023-06-26T00:11:06;4.80;;;4.10;;
51840;SDS011;37888;53.246;6.658;2023-06-26T00:13:31;4.45;;;4.05;;
51840;SDS011;37888;53.246;6.658;2023-06-26T00:15:57;4.25;;;3.85;;
51840;SDS011;37888;53.246;6.658;2023-06-26T00:18:25;4.28;;;3.88;;
51840;SDS011;37888;53.246;6.658;2023-06-26T00:20:51;4.43;;;4.03;;
51840;SDS011;37888;53.246;6.658;2023-06-26T00:23:16;4.30;;;3.90;;
51840;SDS011;37888;53.246;6.658;2023-06-26T00:25:43;4.10;;;3.70;;
51840;SDS011;37888;53.246;6.658;2023-06-26T00:28:09;4.15;;;3.75;;
51840;SDS011;37888;53.246;6.658;2023-06-26T00:30:37;5.05;;;4.00;;
51840;SDS011;37888;53.246;6.658;2023-06-26T00:33:06;5.28;;;3.92;;
51840;SDS011;37888;53.246;6.658;2023-06-26T00:35:31;4.50;;;4.10;;
51840;SDS011;37888;53.246;6.658;2023-06-26T00:37:57;4.72;;;3.70;;
51840;SDS011;37888;53.246;6.658;2023-06-26T00:40:23;5.88;;;4.05;;
51840;SDS011;37888;53.246;6.658;2023-06-26T00:42:49;5.10;;;4.38;;
51840;SDS011;37888;53.246;6.658;2023-06-26T00:45:15;4.13;;;3.72;;
51840;SDS011;37888;53.246;6.658;2023-06-26T00:47:41;4.65;;;4.25;;
51840;SDS011;37888;53.246;6.658;2023-06-26T00:50:07;5.30;;;3.88;;
51840;SDS011;37888;53.246;6.658;2023-06-26T00:52:33;4.22;;;3.83;;
51840;SDS011;37888;53.246;6.658;2023-06-26T00:54:59;4.53;;;4.13;;
51840;SDS011;37888;53.246;6.658;2023-06-26T00:57:25;4.43;;;3.97;;
51840;SDS011;37888;53.246;6.658;2023-06-26T00:59:51;4.63;;;4.18;;
51840;SDS011;37888;53.246;6.658;2023-06-26T01:02:17;5.57;;;4.53;;
51840;SDS011;37888;53.246;6.658;2023-06-26T01:04:46;4.60;;;4.20;;
51840;SDS011;37888;53.246;6.658;2023-06-26T01:07:13;4.25;;;3.85;;
51840;SDS011;37888;53.246;6.658;2023-06-26T01:09:40;5.13;;;4.13;;
51840;SDS011;37888;53.246;6.658;2023-06-26T01:12:07;5.70;;;4.50;;
51840;SDS011;37888;53.246;6.658;2023-06-26T01:14:34;5.03;;;4.43;;
51840;SDS011;37888;53.246;6.658;2023-06-26T01:17:01;5.10;;;4.30;;
51840;SDS011;37888;53.246;6.658;2023-06-26T01:19:28;5.50;;;4.25;;
51840;SDS011;37888;53.246;6.658;2023-06-26T01:24:48;5.25;;;4.75;;
51840;SDS011;37888;53.246;6.658;2023-06-26T01:27:26;4.88;;;4.47;;
51840;SDS011;37888;53.246;6.658;2023-06-26T01:29:54;4.78;;;4.38;;
51840;SDS011;37888;53.246;6.658;2023-06-26T01:32:21;4.78;;;4.32;;
51840;SDS011;37888;53.246;6.658;2023-06-26T01:34:47;5.45;;;4.30;;
51840;SDS011;37888;53.246;6.658;2023-06-26T01:37:13;4.93;;;4.50;;
51840;SDS011;37888;53.246;6.658;2023-06-26T01:39:39;4.55;;;4.15;;
51840;SDS011;37888;53.246;6.658;2023-06-26T01:42:05;4.20;;;3.90;;
51840;SDS011;37888;53.246;6.658;2023-06-26T01:44:32;4.80;;;4.30;;
51840;SDS011;37888;53.246;6.658;2023-06-26T01:47:02;4.75;;;4.30;;
51840;SDS011;37888;53.246;6.658;2023-06-26T01:52:14;5.82;;;4.90;;
51840;SDS011;37888;53.246;6.658;2023-06-26T01:57:45;5.53;;;5.03;;
51840;SDS011;37888;53.246;6.658;2023-06-26T02:00:14;5.68;;;5.18;;
51840;SDS011;37888;53.246;6.658;2023-06-26T02:02:43;5.45;;;4.95;;
51840;SDS011;37888;53.246;6.658;2023-06-26T02:05:09;6.15;;;4.65;;
51840;SDS011;37888;53.246;6.658;2023-06-26T02:07:35;6.15;;;5.43;;
51840;SDS011;37888;53.246;6.658;2023-06-26T02:10:01;5.50;;;4.95;;
51840;SDS011;37888;53.246;6.658;2023-06-26T02:12:27;7.03;;;5.25;;
51840;SDS011;37888;53.246;6.658;2023-06-26T02:14:53;5.05;;;4.55;;
51840;SDS011;37888;53.246;6.658;2023-06-26T02:17:19;5.50;;;4.68;;
51840;SDS011;37888;53.246;6.658;2023-06-26T02:19:45;5.22;;;4.78;;
51840;SDS011;37888;53.246;6.658;2023-06-26T02:22:15;5.15;;;4.75;;
51840;SDS011;37888;53.246;6.658;2023-06-26T02:24:42;5.75;;;5.15;;
51840;SDS011;37888;53.246;6.658;2023-06-26T02:27:08;5.43;;;4.97;;
51840;SDS011;37888;53.246;6.658;2023-06-26T02:29:34;5.40;;;4.90;;
51840;SDS011;37888;53.246;6.658;2023-06-26T02:32:00;5.35;;;4.85;;
51840;SDS011;37888;53.246;6.658;2023-06-26T02:34:26;5.00;;;4.60;;
51840;SDS011;37888;53.246;6.658;2023-06-26T02:36:52;6.95;;;4.78;;
51840;SDS011;37888;53.246;6.658;2023-06-26T02:39:21;7.45;;;5.30;;
51840;SDS011;37888;53.246;6.658;2023-06-26T02:41:47;4.97;;;4.47;;
51840;SDS011;37888;53.246;6.658;2023-06-26T02:44:13;5.30;;;4.80;;
51840;SDS011;37888;53.246;6.658;2023-06-26T02:46:39;5.53;;;4.97;;
51840;SDS011;37888;53.246;6.658;2023-06-26T02:49:06;5.50;;;5.00;;
51840;SDS011;37888;53.246;6.658;2023-06-26T02:51:32;5.13;;;4.55;;
51840;SDS011;37888;53.246;6.658;2023-06-26T02:54:01;5.30;;;4.88;;
51840;SDS011;37888;53.246;6.658;2023-06-26T02:56:27;5.10;;;4.60;;
51840;SDS011;37888;53.246;6.658;2023-06-26T02:58:56;4.90;;;4.38;;
51840;SDS011;37888;53.246;6.658;2023-06-26T03:01:22;5.22;;;4.72;;
51840;SDS011;37888;53.246;6.658;2023-06-26T03:03:48;4.78;;;4.38;;
51840;SDS011;37888;53.246;6.658;2023-06-26T03:06:14;5.13;;;4.72;;
51840;SDS011;37888;53.246;6.658;2023-06-26T03:08:41;5.43;;;4.93;;
51840;SDS011;37888;53.246;6.658;2023-06-26T03:11:07;5.05;;;4.55;;
51840;SDS011;37888;53.246;6.658;2023-06-26T03:13:34;5.55;;;5.05;;
51840;SDS011;37888;53.246;6.658;2023-06-26T03:16:01;5.93;;;5.00;;
51840;SDS011;37888;53.246;6.658;2023-06-26T03:18:27;4.65;;;4.13;;
51840;SDS011;37888;53.246;6.658;2023-06-26T03:20:53;5.28;;;4.78;;
51840;SDS011;37888;53.246;6.658;2023-06-26T03:25:46;4.57;;;4.15;;
51840;SDS011;37888;53.246;6.658;2023-06-26T03:28:12;5.18;;;4.47;;
51840;SDS011;37888;53.246;6.658;2023-06-26T03:30:38;5.00;;;4.60;;
51840;SDS011;37888;53.246;6.658;2023-06-26T03:33:04;4.73;;;4.33;;
51840;SDS011;37888;53.246;6.658;2023-06-26T03:35:30;5.55;;;4.63;;
51840;SDS011;37888;53.246;6.658;2023-06-26T03:37:55;4.50;;;4.10;;
51840;SDS011;37888;53.246;6.658;2023-06-26T03:40:22;5.50;;;4.80;;
51840;SDS011;37888;53.246;6.658;2023-06-26T03:42:47;4.80;;;4.30;;
51840;SDS011;37888;53.246;6.658;2023-06-26T03:45:13;4.75;;;4.25;;
51840;SDS011;37888;53.246;6.658;2023-06-26T03:47:39;6.22;;;4.57;;
51840;SDS011;37888;53.246;6.658;2023-06-26T03:50:05;4.43;;;4.03;;
51840;SDS011;37888;53.246;6.658;2023-06-26T03:52:31;6.57;;;4.33;;
51840;SDS011;37888;53.246;6.658;2023-06-26T03:54:57;4.68;;;4.28;;
51840;SDS011;37888;53.246;6.658;2023-06-26T03:57:23;4.47;;;4.10;;
51840;SDS011;37888;53.246;6.658;2023-06-26T03:59:49;5.47;;;4.32;;
51840;SDS011;37888;53.246;6.658;2023-06-26T04:02:15;4.70;;;3.85;;
51840;SDS011;37888;53.246;6.658;2023-06-26T04:04:41;4.72;;;4.32;;
51840;SDS011;37888;53.246;6.658;2023-06-26T04:07:07;6.95;;;4.15;;
51840;SDS011;37888;53.246;6.658;2023-06-26T04:09:32;4.07;;;3.65;;
51840;SDS011;37888;53.246;6.658;2023-06-26T04:11:58;4.00;;;3.63;;
51840;SDS011;37888;53.246;6.658;2023-06-26T04:14:24;6.38;;;4.20;;
51840;SDS011;37888;53.246;6.658;2023-06-26T04:16:50;4.90;;;4.35;;
51840;SDS011;37888;53.246;6.658;2023-06-26T04:19:15;4.93;;;3.80;;
51840;SDS011;37888;53.246;6.658;2023-06-26T04:21:41;5.57;;;3.67;;
51840;SDS011;37888;53.246;6.658;2023-06-26T04:24:07;4.05;;;3.30;;
51840;SDS011;37888;53.246;6.658;2023-06-26T04:26:33;5.82;;;4.40;;
51840;SDS011;37888;53.246;6.658;2023-06-26T04:28:58;5.32;;;3.92;;
51840;SDS011;37888;53.246;6.658;2023-06-26T04:31:24;5.47;;;4.35;;
51840;SDS011;37888;53.246;6.658;2023-06-26T04:33:50;4.20;;;3.80;;
51840;SDS011;37888;53.246;6.658;2023-06-26T04:36:19;4.90;;;4.00;;
51840;SDS011;37888;53.246;6.658;2023-06-26T04:38:45;4.20;;;3.80;;
51840;SDS011;37888;53.246;6.658;2023-06-26T04:41:10;5.20;;;3.83;;
51840;SDS011;37888;53.246;6.658;2023-06-26T04:43:36;5.90;;;4.15;;
51840;SDS011;37888;53.246;6.658;2023-06-26T04:46:02;4.95;;;4.00;;
51840;SDS011;37888;53.246;6.658;2023-06-26T04:48:28;4.85;;;3.83;;
51840;SDS011;37888;53.246;6.658;2023-06-26T04:50:56;5.28;;;4.07;;
51840;SDS011;37888;53.246;6.658;2023-06-26T04:53:24;4.50;;;3.80;;
51840;SDS011;37888;53.246;6.658;2023-06-26T04:55:50;4.43;;;3.40;;
51840;SDS011;37888;53.246;6.658;2023-06-26T04:58:17;5.43;;;3.72;;
51840;SDS011;37888;53.246;6.658;2023-06-26T05:00:43;4.68;;;3.78;;
51840;SDS011;37888;53.246;6.658;2023-06-26T05:03:09;6.00;;;3.95;;
51840;SDS011;37888;53.246;6.658;2023-06-26T05:05:36;5.40;;;3.58;;
51840;SDS011;37888;53.246;6.658;2023-06-26T05:08:12;4.80;;;3.90;;
51840;SDS011;37888;53.246;6.658;2023-06-26T05:10:39;5.45;;;3.90;;
51840;SDS011;37888;53.246;6.658;2023-06-26T05:13:05;4.75;;;3.28;;
51840;SDS011;37888;53.246;6.658;2023-06-26T05:15:31;5.03;;;3.75;;
51840;SDS011;37888;53.246;6.658;2023-06-26T05:18:01;11.23;;;5.43;;
51840;SDS011;37888;53.246;6.658;2023-06-26T05:23:33;7.43;;;5.65;;
51840;SDS011;37888;53.246;6.658;2023-06-26T05:26:12;7.43;;;5.82;;
51840;SDS011;37888;53.246;6.658;2023-06-26T05:28:41;7.53;;;5.43;;
51840;SDS011;37888;53.246;6.658;2023-06-26T05:31:09;7.15;;;6.00;;
51840;SDS011;37888;53.246;6.658;2023-06-26T05:33:35;7.50;;;5.50;;
51840;SDS011;37888;53.246;6.658;2023-06-26T05:40:00;9.00;;;6.10;;
51840;SDS011;37888;53.246;6.658;2023-06-26T05:42:53;8.20;;;6.00;;
51840;SDS011;37888;53.246;6.658;2023-06-26T05:45:32;7.57;;;4.35;;
51840;SDS011;37888;53.246;6.658;2023-06-26T05:48:16;7.00;;;4.20;;
51840;SDS011;37888;53.246;6.658;2023-06-26T05:50:50;4.95;;;3.85;;
51840;SDS011;37888;53.246;6.658;2023-06-26T05:53:16;8.20;;;4.30;;
51840;SDS011;37888;53.246;6.658;2023-06-26T05:56:08;8.65;;;4.40;;
51840;SDS011;37888;53.246;6.658;2023-06-26T05:58:35;6.95;;;3.30;;
51840;SDS011;37888;53.246;6.658;2023-06-26T06:01:04;6.28;;;3.30;;
51840;SDS011;37888;53.246;6.658;2023-06-26T06:03:30;7.10;;;4.03;;
51840;SDS011;37888;53.246;6.658;2023-06-26T06:05:56;6.97;;;3.03;;
51840;SDS011;37888;53.246;6.658;2023-06-26T06:08:24;6.90;;;3.20;;
51840;SDS011;37888;53.246;6.658;2023-06-26T06:10:53;4.90;;;2.42;;
51840;SDS011;37888;53.246;6.658;2023-06-26T06:13:21;4.93;;;2.30;;
51840;SDS011;37888;53.246;6.658;2023-06-26T06:15:47;10.00;;;2.80;;
51840;SDS011;37888;53.246;6.658;2023-06-26T06:18:13;5.47;;;2.73;;
51840;SDS011;37888;53.246;6.658;2023-06-26T06:20:39;6.93;;;2.55;;
51840;SDS011;37888;53.246;6.658;2023-06-26T06:23:05;5.28;;;2.80;;
51840;SDS011;37888;53.246;6.658;2023-06-26T06:25:31;5.22;;;2.10;;
51840;SDS011;37888;53.246;6.658;2023-06-26T06:27:57;7.53;;;2.72;;
51840;SDS011;37888;53.246;6.658;2023-06-26T06:30:22;9.10;;;2.85;;
51840;SDS011;37888;53.246;6.658;2023-06-26T06:32:48;7.93;;;2.55;;
51840;SDS011;37888;53.246;6.658;2023-06-26T06:35:19;6.65;;;2.60;;
51840;SDS011;37888;53.246;6.658;2023-06-26T06:37:46;6.20;;;2.20;;
51840;SDS011;37888;53.246;6.658;2023-06-26T06:40:12;3.63;;;1.92;;
51840;SDS011;37888;53.246;6.658;2023-06-26T06:42:37;8.15;;;2.50;;
51840;SDS011;37888;53.246;6.658;2023-06-26T06:45:04;7.65;;;2.70;;
51840;SDS011;37888;53.246;6.658;2023-06-26T06:47:31;9.10;;;2.17;;
51840;SDS011;37888;53.246;6.658;2023-06-26T06:52:23;6.75;;;1.70;;
51840;SDS011;37888;53.246;6.658;2023-06-26T06:54:53;6.20;;;1.80;;
51840;SDS011;37888;53.246;6.658;2023-06-26T06:57:20;4.28;;;1.40;;
51840;SDS011;37888;53.246;6.658;2023-06-26T06:59:46;4.40;;;1.63;;
51840;SDS011;37888;53.246;6.658;2023-06-26T07:04:40;6.15;;;1.58;;
51840;SDS011;37888;53.246;6.658;2023-06-26T07:07:06;3.28;;;1.38;;
51840;SDS011;37888;53.246;6.658;2023-06-26T07:09:31;4.30;;;1.70;;
51840;SDS011;37888;53.246;6.658;2023-06-26T07:11:57;5.10;;;1.70;;
51840;SDS011;37888;53.246;6.658;2023-06-26T07:14:23;3.20;;;1.20;;
51840;SDS011;37888;53.246;6.658;2023-06-26T07:16:49;3.85;;;1.15;;
51840;SDS011;37888;53.246;6.658;2023-06-26T07:19:14;3.50;;;1.42;;
51840;SDS011;37888;53.246;6.658;2023-06-26T07:21:40;2.63;;;1.40;;
51840;SDS011;37888;53.246;6.658;2023-06-26T07:24:06;1.87;;;0.70;;
51840;SDS011;37888;53.246;6.658;2023-06-26T07:26:32;2.20;;;1.00;;
51840;SDS011;37888;53.246;6.658;2023-06-26T07:28:58;3.37;;;1.20;;
51840;SDS011;37888;53.246;6.658;2023-06-26T07:31:24;3.90;;;1.15;;
51840;SDS011;37888;53.246;6.658;2023-06-26T07:33:49;4.25;;;1.20;;
51840;SDS011;37888;53.246;6.658;2023-06-26T07:36:15;3.55;;;1.13;;
51840;SDS011;37888;53.246;6.658;2023-06-26T07:38:41;4.25;;;1.00;;
51840;SDS011;37888;53.246;6.658;2023-06-26T07:41:06;2.78;;;1.00;;
51840;SDS011;37888;53.246;6.658;2023-06-26T07:43:32;2.85;;;0.90;;
51840;SDS011;37888;53.246;6.658;2023-06-26T07:45:58;2.47;;;0.90;;
51840;SDS011;37888;53.246;6.658;2023-06-26T07:48:24;3.17;;;1.00;;
51840;SDS011;37888;53.246;6.658;2023-06-26T07:50:50;1.45;;;0.60;;
51840;SDS011;37888;53.246;6.658;2023-06-26T07:53:16;1.67;;;0.93;;
51840;SDS011;37888;53.246;6.658;2023-06-26T07:55:42;2.08;;;0.93;;
51840;SDS011;37888;53.246;6.658;2023-06-26T07:58:08;2.03;;;0.70;;
51840;SDS011;37888;53.246;6.658;2023-06-26T08:00:34;1.67;;;0.90;;
51840;SDS011;37888;53.246;6.658;2023-06-26T08:02:59;2.25;;;0.70;;
51840;SDS011;37888;53.246;6.658;2023-06-26T08:05:25;1.10;;;0.77;;
51840;SDS011;37888;53.246;6.658;2023-06-26T08:07:51;2.28;;;0.82;;
51840;SDS011;37888;53.246;6.658;2023-06-26T08:10:17;2.17;;;0.70;;
51840;SDS011;37888;53.246;6.658;2023-06-26T08:12:43;2.28;;;0.70;;
51840;SDS011;37888;53.246;6.658;2023-06-26T08:15:10;2.78;;;0.90;;
51840;SDS011;37888;53.246;6.658;2023-06-26T08:17:36;1.98;;;0.73;;
51840;SDS011;37888;53.246;6.658;2023-06-26T08:20:03;3.40;;;0.70;;
51840;SDS011;37888;53.246;6.658;2023-06-26T08:22:30;2.97;;;0.85;;
51840;SDS011;37888;53.246;6.658;2023-06-26T08:24:56;1.63;;;0.82;;
51840;SDS011;37888;53.246;6.658;2023-06-26T08:27:22;3.40;;;0.90;;
51840;SDS011;37888;53.246;6.658;2023-06-26T08:29:47;3.60;;;0.73;;
51840;SDS011;37888;53.246;6.658;2023-06-26T08:32:13;4.53;;;1.23;;
51840;SDS011;37888;53.246;6.658;2023-06-26T08:34:39;4.78;;;1.10;;
51840;SDS011;37888;53.246;6.658;2023-06-26T08:37:05;2.03;;;0.70;;
51840;SDS011;37888;53.246;6.658;2023-06-26T08:39:30;2.83;;;1.00;;
51840;SDS011;37888;53.246;6.658;2023-06-26T08:41:56;2.80;;;0.85;;
51840;SDS011;37888;53.246;6.658;2023-06-26T08:44:22;4.18;;;1.08;;
51840;SDS011;37888;53.246;6.658;2023-06-26T08:46:50;2.30;;;1.08;;
51840;SDS011;37888;53.246;6.658;2023-06-26T08:52:28;1.85;;;0.90;;
51840;SDS011;37888;53.246;6.658;2023-06-26T08:54:57;4.03;;;1.10;;
51840;SDS011;37888;53.246;6.658;2023-06-26T08:57:24;2.83;;;1.10;;
51840;SDS011;37888;53.246;6.658;2023-06-26T08:59:51;2.08;;;0.93;;
51840;SDS011;37888;53.246;6.658;2023-06-26T09:02:17;3.58;;;0.80;;
51840;SDS011;37888;53.246;6.658;2023-06-26T09:04:43;4.13;;;1.10;;
51840;SDS011;37888;53.246;6.658;2023-06-26T09:07:09;2.28;;;0.88;;
51840;SDS011;37888;53.246;6.658;2023-06-26T09:09:35;2.10;;;0.70;;
51840;SDS011;37888;53.246;6.658;2023-06-26T09:12:01;3.58;;;1.10;;
51840;SDS011;37888;53.246;6.658;2023-06-26T09:14:31;2.17;;;1.05;;
51840;SDS011;37888;53.246;6.658;2023-06-26T09:16:57;2.72;;;1.17;;
51840;SDS011;37888;53.246;6.658;2023-06-26T09:19:23;2.75;;;1.10;;
51840;SDS011;37888;53.246;6.658;2023-06-26T09:21:49;3.30;;;1.10;;
51840;SDS011;37888;53.246;6.658;2023-06-26T09:24:16;1.35;;;0.75;;
51840;SDS011;37888;53.246;6.658;2023-06-26T09:26:42;2.53;;;1.20;;
51840;SDS011;37888;53.246;6.658;2023-06-26T09:29:08;3.20;;;0.90;;
51840;SDS011;37888;53.246;6.658;2023-06-26T09:31:36;5.10;;;1.17;;
51840;SDS011;37888;53.246;6.658;2023-06-26T09:34:02;1.75;;;0.90;;
51840;SDS011;37888;53.246;6.658;2023-06-26T09:36:29;4.20;;;1.07;;
51840;SDS011;37888;53.246;6.658;2023-06-26T09:39:01;3.70;;;1.05;;
51840;SDS011;37888;53.246;6.658;2023-06-26T09:41:28;2.20;;;0.90;;
51840;SDS011;37888;53.246;6.658;2023-06-26T09:43:55;2.15;;;1.10;;
51840;SDS011;37888;53.246;6.658;2023-06-26T09:46:26;2.33;;;0.93;;
51840;SDS011;37888;53.246;6.658;2023-06-26T09:49:05;3.38;;;1.02;;
51840;SDS011;37888;53.246;6.658;2023-06-26T09:51:36;2.55;;;1.17;;
51840;SDS011;37888;53.246;6.658;2023-06-26T09:54:04;2.15;;;0.90;;
51840;SDS011;37888;53.246;6.658;2023-06-26T09:56:30;2.25;;;0.98;;
51840;SDS011;37888;53.246;6.658;2023-06-26T09:59:00;2.55;;;1.02;;
51840;SDS011;37888;53.246;6.658;2023-06-26T10:01:28;1.83;;;1.05;;
51840;SDS011;37888;53.246;6.658;2023-06-26T10:03:55;3.03;;;0.95;;
51840;SDS011;37888;53.246;6.658;2023-06-26T10:06:33;4.00;;;1.20;;
51840;SDS011;37888;53.246;6.658;2023-06-26T10:09:01;1.67;;;1.13;;
51840;SDS011;37888;53.246;6.658;2023-06-26T10:11:36;2.65;;;1.17;;
51840;SDS011;37888;53.246;6.658;2023-06-26T10:14:07;3.40;;;1.25;;
51840;SDS011;37888;53.246;6.658;2023-06-26T10:16:34;3.45;;;1.27;;
51840;SDS011;37888;53.246;6.658;2023-06-26T10:19:03;2.08;;;1.00;;
51840;SDS011;37888;53.246;6.658;2023-06-26T10:21:33;3.03;;;1.20;;
51840;SDS011;37888;53.246;6.658;2023-06-26T10:24:03;3.30;;;1.40;;
51840;SDS011;37888;53.246;6.658;2023-06-26T10:26:31;3.22;;;1.10;;
51840;SDS011;37888;53.246;6.658;2023-06-26T10:29:03;2.00;;;1.05;;
51840;SDS011;37888;53.246;6.658;2023-06-26T10:31:30;2.90;;;1.20;;
51840;SDS011;37888;53.246;6.658;2023-06-26T10:33:56;3.53;;;1.30;;
51840;SDS011;37888;53.246;6.658;2023-06-26T10:36:30;3.13;;;1.27;;
51840;SDS011;37888;53.246;6.658;2023-06-26T10:39:14;6.65;;;1.65;;
51840;SDS011;37888;53.246;6.658;2023-06-26T10:41:42;4.15;;;1.65;;
51840;SDS011;37888;53.246;6.658;2023-06-26T10:46:52;2.28;;;1.10;;
51840;SDS011;37888;53.246;6.658;2023-06-26T10:49:19;2.40;;;1.10;;
51840;SDS011;37888;53.246;6.658;2023-06-26T10:51:49;1.60;;;0.90;;
51840;SDS011;37888;53.246;6.658;2023-06-26T10:54:16;2.58;;;0.93;;
51840;SDS011;37888;53.246;6.658;2023-06-26T10:56:44;2.40;;;1.02;;
51840;SDS011;37888;53.246;6.658;2023-06-26T10:59:22;1.63;;;0.95;;
51840;SDS011;37888;53.246;6.658;2023-06-26T11:01:54;3.47;;;1.25;;
51840;SDS011;37888;53.246;6.658;2023-06-26T11:04:46;2.70;;;1.15;;
51840;SDS011;37888;53.246;6.658;2023-06-26T11:15:07;2.42;;;1.25;;
51840;SDS011;37888;53.246;6.658;2023-06-26T11:17:35;3.35;;;1.20;;
51840;SDS011;37888;53.246;6.658;2023-06-26T11:20:02;4.28;;;0.70;;
51840;SDS011;37888;53.246;6.658;2023-06-26T11:22:34;2.47;;;0.80;;
51840;SDS011;37888;53.246;6.658;2023-06-26T11:25:02;2.20;;;0.80;;
51840;SDS011;37888;53.246;6.658;2023-06-26T11:27:50;2.47;;;0.70;;
51840;SDS011;37888;53.246;6.658;2023-06-26T11:30:25;2.50;;;0.90;;
51840;SDS011;37888;53.246;6.658;2023-06-26T11:32:51;4.47;;;1.15;;
51840;SDS011;37888;53.246;6.658;2023-06-26T11:35:23;3.50;;;0.75;;
51840;SDS011;37888;53.246;6.658;2023-06-26T11:40:26;3.15;;;0.98;;
51840;SDS011;37888;53.246;6.658;2023-06-26T11:42:52;3.80;;;0.70;;
51840;SDS011;37888;53.246;6.658;2023-06-26T11:45:21;2.97;;;0.85;;
51840;SDS011;37888;53.246;6.658;2023-06-26T11:47:47;2.65;;;0.60;;
51840;SDS011;37888;53.246;6.658;2023-06-26T11:50:14;3.05;;;0.93;;
51840;SDS011;37888;53.246;6.658;2023-06-26T11:52:41;3.50;;;0.85;;
51840;SDS011;37888;53.246;6.658;2023-06-26T11:55:08;2.42;;;0.65;;
51840;SDS011;37888;53.246;6.658;2023-06-26T11:57:37;3.30;;;0.80;;
51840;SDS011;37888;53.246;6.658;2023-06-26T12:00:13;1.55;;;0.60;;
51840;SDS011;37888;53.246;6.658;2023-06-26T12:02:41;2.03;;;0.70;;
51840;SDS011;37888;53.246;6.658;2023-06-26T12:05:24;2.15;;;0.65;;
51840;SDS011;37888;53.246;6.658;2023-06-26T12:07:50;5.43;;;0.88;;
51840;SDS011;37888;53.246;6.658;2023-06-26T12:10:16;2.55;;;0.80;;
51840;SDS011;37888;53.246;6.658;2023-06-26T12:15:12;3.38;;;0.60;;
51840;SDS011;37888;53.246;6.658;2023-06-26T12:17:40;6.25;;;1.25;;
51840;SDS011;37888;53.246;6.658;2023-06-26T12:20:06;1.88;;;0.57;;
51840;SDS011;37888;53.246;6.658;2023-06-26T12:22:56;3.08;;;0.70;;
51840;SDS011;37888;53.246;6.658;2023-06-26T12:25:22;2.60;;;0.80;;
51840;SDS011;37888;53.246;6.658;2023-06-26T12:27:48;2.63;;;0.70;;
51840;SDS011;37888;53.246;6.658;2023-06-26T12:30:15;2.58;;;0.80;;
51840;SDS011;37888;53.246;6.658;2023-06-26T12:32:43;3.15;;;0.63;;
51840;SDS011;37888;53.246;6.658;2023-06-26T12:35:11;2.83;;;0.77;;
51840;SDS011;37888;53.246;6.658;2023-06-26T12:37:37;2.78;;;0.80;;
51840;SDS011;37888;53.246;6.658;2023-06-26T12:40:15;4.03;;;0.90;;
51840;SDS011;37888;53.246;6.658;2023-06-26T12:42:47;1.77;;;0.68;;
51840;SDS011;37888;53.246;6.658;2023-06-26T12:45:13;2.47;;;0.60;;
51840;SDS011;37888;53.246;6.658;2023-06-26T12:47:42;3.13;;;0.90;;
51840;SDS011;37888;53.246;6.658;2023-06-26T12:50:08;1.63;;;0.70;;
51840;SDS011;37888;53.246;6.658;2023-06-26T12:52:34;1.98;;;0.80;;
51840;SDS011;37888;53.246;6.658;2023-06-26T12:55:00;2.33;;;0.60;;
51840;SDS011;37888;53.246;6.658;2023-06-26T12:57:26;2.33;;;0.73;;
51840;SDS011;37888;53.246;6.658;2023-06-26T12:59:52;2.92;;;0.65;;
51840;SDS011;37888;53.246;6.658;2023-06-26T13:02:18;2.35;;;0.70;;
51840;SDS011;37888;53.246;6.658;2023-06-26T13:04:47;1.80;;;0.60;;
51840;SDS011;37888;53.246;6.658;2023-06-26T13:07:13;2.35;;;0.55;;
51840;SDS011;37888;53.246;6.658;2023-06-26T13:09:39;2.70;;;0.55;;
51840;SDS011;37888;53.246;6.658;2023-06-26T13:12:06;4.40;;;0.80;;
51840;SDS011;37888;53.246;6.658;2023-06-26T13:14:32;3.80;;;0.75;;
51840;SDS011;37888;53.246;6.658;2023-06-26T13:16:58;2.22;;;0.75;;
51840;SDS011;37888;53.246;6.658;2023-06-26T13:19:25;2.55;;;0.60;;
51840;SDS011;37888;53.246;6.658;2023-06-26T13:21:50;2.47;;;1.08;;
51840;SDS011;37888;53.246;6.658;2023-06-26T13:24:16;2.88;;;0.60;;
51840;SDS011;37888;53.246;6.658;2023-06-26T13:26:42;2.80;;;0.82;;
51840;SDS011;37888;53.246;6.658;2023-06-26T13:29:08;2.80;;;0.95;;
51840;SDS011;37888;53.246;6.658;2023-06-26T13:31:33;4.03;;;0.70;;
51840;SDS011;37888;53.246;6.658;2023-06-26T13:34:00;1.92;;;0.65;;
51840;SDS011;37888;53.246;6.658;2023-06-26T13:36:28;2.63;;;0.95;;
51840;SDS011;37888;53.246;6.658;2023-06-26T13:38:54;2.28;;;0.63;;
51840;SDS011;37888;53.246;6.658;2023-06-26T13:41:23;2.08;;;0.73;;
51840;SDS011;37888;53.246;6.658;2023-06-26T13:43:50;2.35;;;0.90;;
51840;SDS011;37888;53.246;6.658;2023-06-26T13:46:16;1.67;;;0.60;;
51840;SDS011;37888;53.246;6.658;2023-06-26T13:48:43;4.50;;;1.13;;
51840;SDS011;37888;53.246;6.658;2023-06-26T13:51:09;3.13;;;0.88;;
51840;SDS011;37888;53.246;6.658;2023-06-26T13:53:35;2.80;;;1.00;;
51840;SDS011;37888;53.246;6.658;2023-06-26T13:56:01;2.90;;;1.00;;
51840;SDS011;37888;53.246;6.658;2023-06-26T13:58:27;3.33;;;0.90;;
51840;SDS011;37888;53.246;6.658;2023-06-26T14:00:55;4.07;;;0.90;;
51840;SDS011;37888;53.246;6.658;2023-06-26T14:03:20;2.97;;;0.77;;
51840;SDS011;37888;53.246;6.658;2023-06-26T14:05:47;2.05;;;0.95;;
51840;SDS011;37888;53.246;6.658;2023-06-26T14:08:13;3.67;;;1.10;;
51840;SDS011;37888;53.246;6.658;2023-06-26T14:10:39;5.10;;;1.08;;
51840;SDS011;37888;53.246;6.658;2023-06-26T14:13:05;2.20;;;0.63;;
51840;SDS011;37888;53.246;6.658;2023-06-26T14:15:32;3.47;;;0.98;;
51840;SDS011;37888;53.246;6.658;2023-06-26T14:20:24;4.13;;;1.10;;
51840;SDS011;37888;53.246;6.658;2023-06-26T14:22:53;2.58;;;0.80;;
51840;SDS011;37888;53.246;6.658;2023-06-26T14:25:19;1.85;;;0.60;;
51840;SDS011;37888;53.246;6.658;2023-06-26T14:27:44;3.80;;;0.90;;
51840;SDS011;37888;53.246;6.658;2023-06-26T14:30:13;2.83;;;0.77;;
51840;SDS011;37888;53.246;6.658;2023-06-26T14:32:39;3.63;;;1.08;;
51840;SDS011;37888;53.246;6.658;2023-06-26T14:35:06;2.78;;;0.73;;
51840;SDS011;37888;53.246;6.658;2023-06-26T14:37:32;1.52;;;0.55;;
51840;SDS011;37888;53.246;6.658;2023-06-26T14:39:58;3.95;;;0.65;;
51840;SDS011;37888;53.246;6.658;2023-06-26T14:42:24;2.47;;;0.85;;
51840;SDS011;37888;53.246;6.658;2023-06-26T14:44:50;3.60;;;0.70;;
51840;SDS011;37888;53.246;6.658;2023-06-26T14:47:16;3.50;;;1.08;;
51840;SDS011;37888;53.246;6.658;2023-06-26T14:49:43;2.63;;;0.85;;
51840;SDS011;37888;53.246;6.658;2023-06-26T14:52:09;2.15;;;0.70;;
51840;SDS011;37888;53.246;6.658;2023-06-26T14:54:35;3.03;;;0.60;;
51840;SDS011;37888;53.246;6.658;2023-06-26T14:57:05;2.15;;;0.60;;
51840;SDS011;37888;53.246;6.658;2023-06-26T14:59:32;3.90;;;1.10;;
51840;SDS011;37888;53.246;6.658;2023-06-26T15:01:58;4.00;;;1.00;;
51840;SDS011;37888;53.246;6.658;2023-06-26T15:37:29;4.32;;;1.10;;
51840;SDS011;37888;53.246;6.658;2023-06-26T15:39:55;3.95;;;1.08;;
51840;SDS011;37888;53.246;6.658;2023-06-26T15:42:21;2.90;;;1.38;;
51840;SDS011;37888;53.246;6.658;2023-06-26T15:44:51;5.00;;;1.45;;
51840;SDS011;37888;53.246;6.658;2023-06-26T15:47:17;3.33;;;1.48;;
51840;SDS011;37888;53.246;6.658;2023-06-26T15:49:43;5.60;;;1.00;;
51840;SDS011;37888;53.246;6.658;2023-06-26T15:52:10;3.47;;;0.83;;
51840;SDS011;37888;53.246;6.658;2023-06-26T15:57:14;4.57;;;1.10;;
51840;SDS011;37888;53.246;6.658;2023-06-26T15:59:46;4.78;;;1.27;;
51840;SDS011;37888;53.246;6.658;2023-06-26T16:02:28;2.78;;;0.90;;
51840;SDS011;37888;53.246;6.658;2023-06-26T16:05:13;5.72;;;1.17;;
51840;SDS011;37888;53.246;6.658;2023-06-26T16:07:39;2.92;;;1.08;;
51840;SDS011;37888;53.246;6.658;2023-06-26T16:10:05;6.97;;;1.27;;